This is the latest recevied weather packets stored in our database for station/object OE5WWO. If no packets are shown the sender has not sent any weather packets the latest 10 day(s).
| Time | Temp. | Humidity | Pressure | Rain* | Wind** | Luminosity | Snow |
|---|---|---|---|---|---|---|---|
| 1777926339 | 20° C | 52% | 1009.9 hPa | 0 mm | - | - | - |
| 1777926043 | 20° C | 51% | 1009.8 hPa | 0 mm | - | - | - |
| 1777925139 | 20° C | 52% | 1009.7 hPa | 0 mm | - | - | - |
| 1777923639 | 21.11° C | 50% | 1009.5 hPa | 0 mm | - | - | - |
| 1777923340 | 21.11° C | 50% | 1009.5 hPa | 0 mm | - | - | - |
| 1777923054 | 21.11° C | 49% | 1009.5 hPa | 0 mm | - | - | - |
| 1777921839 | 21.67° C | 48% | 1009.4 hPa | 0 mm | - | - | - |
| 1777920364 | 23.33° C | 42% | 1009.1 hPa | 0 mm | - | - | - |
| 1777919458 | 23.89° C | 40% | 1009 hPa | 0 mm | - | - | - |
| 1777918838 | 23.89° C | 41% | 1009.1 hPa | 0 mm | - | - | - |
| 1777917042 | 25° C | 39% | 1009 hPa | 0 mm | - | - | - |
| 1777916438 | 25° C | 38% | 1008.9 hPa | 0 mm | - | - | - |
| 1777914054 | 26.11° C | 36% | 1009.1 hPa | 0 mm | - | - | - |
| 1777913739 | 26.11° C | 34% | 1009.1 hPa | 0 mm | - | - | - |
| 1777908038 | 27.22° C | 32% | 1009.5 hPa | 0 mm | - | - | - |
| 1777906854 | 28.33° C | 29% | 1009.5 hPa | 0 mm | - | - | - |
| 1777902938 | 29.44° C | 33% | 1010.6 hPa | 0 mm | - | - | - |
| 1777902369 | 28.33° C | 33% | 1010.8 hPa | 0 mm | - | - | - |
| 1777901738 | 28.33° C | 30% | 1011 hPa | 0 mm | - | - | - |
| 1777897238 | 26.11° C | 40% | 1012.2 hPa | 0 mm | - | - | - |
| 1777892137 | 24.44° C | 43% | 1013.3 hPa | 0 mm | - | - | - |
| 1777890037 | 23.33° C | 46% | 1014 hPa | 0 mm | - | - | - |
| 1777889438 | 23.33° C | 46% | 1014.2 hPa | 0 mm | - | - | - |
| 1777885837 | 21.67° C | 53% | 1014.9 hPa | 0 mm | - | - | - |
| 1777885249 | 21.11° C | 52% | 1014.9 hPa | 0 mm | - | - | - |
* Rain latest hour (hover to see other rain measurements)
** Current wind speed in m/s (hover to see current wind gust speed)